Time;durP1;ratioP1;P1;durP2;ratioP2;P2;SDS_P1;SDS_P2;PMS_P1;PMS_P2;Temp;Humidity;BMP_temperature;BMP_pressure;BME280_temperature;BME280_humidity;BME280_pressure;Samples;Min_cycle;Max_cycle;Signal;HPM_P1;HPM_P2
2023/07/31 00:01:08;;;;;;;14.80;11.80;;;26.20;51.30;;;;;;5037505;28;20510;-81
2023/07/31 00:03:35;;;;;;;13.87;11.67;;;26.10;51.40;;;;;;5035115;28;20439;-80
2023/07/31 00:06:03;;;;;;;21.57;13.43;;;26.10;51.40;;;;;;5023927;28;20431;-81
2023/07/31 00:08:32;;;;;;;20.43;14.77;;;26.10;51.50;;;;;;5037376;28;20407;-81
2023/07/31 00:11:00;;;;;;;19.30;14.40;;;26.10;51.50;;;;;;5037565;28;20439;-81
2023/07/31 00:13:28;;;;;;;17.90;14.07;;;26.10;51.40;;;;;;5036554;28;20450;-81
2023/07/31 00:15:56;;;;;;;20.73;13.80;;;26.10;51.50;;;;;;5037727;28;20479;-81
2023/07/31 00:18:24;;;;;;;17.50;14.30;;;26.10;51.50;;;;;;5037819;28;20470;-80
2023/07/31 00:20:51;;;;;;;17.60;13.63;;;26.10;51.50;;;;;;5037979;28;20566;-81
2023/07/31 00:23:19;;;;;;;18.03;14.40;;;26.10;51.60;;;;;;5037744;28;20530;-81
2023/07/31 00:25:49;;;;;;;20.63;13.97;;;26.10;51.50;;;;;;5019871;28;20475;-80
2023/07/31 00:28:16;;;;;;;20.53;14.00;;;26.00;51.40;;;;;;5026678;28;20475;-81
2023/07/31 00:30:44;;;;;;;15.97;13.23;;;26.00;51.60;;;;;;5037291;28;20439;-81
2023/07/31 00:33:12;;;;;;;16.27;13.60;;;26.00;51.50;;;;;;5021819;28;20454;-82
2023/07/31 00:35:40;;;;;;;17.77;13.20;;;26.00;51.60;;;;;;5039933;28;20521;-80
2023/07/31 00:38:08;;;;;;;16.83;13.20;;;26.00;51.50;;;;;;5040590;28;20471;-81
2023/07/31 00:40:37;;;;;;;19.60;13.17;;;25.90;51.40;;;;;;5032698;28;20485;-81
2023/07/31 00:43:06;;;;;;;23.17;12.90;;;25.90;51.50;;;;;;5041128;28;20438;-81
2023/07/31 00:45:34;;;;;;;18.03;12.57;;;25.90;51.70;;;;;;5038424;28;20490;-81
2023/07/31 00:48:02;;;;;;;14.50;12.07;;;25.90;51.40;;;;;;5040787;28;20916;-81
2023/07/31 00:50:30;;;;;;;12.57;10.50;;;25.90;51.50;;;;;;5031160;28;20419;-81
2023/07/31 00:52:58;;;;;;;14.90;10.33;;;25.90;51.50;;;;;;5034320;28;20536;-80
2023/07/31 00:55:26;;;;;;;13.30;10.13;;;25.90;51.50;;;;;;5023835;28;20477;-81
2023/07/31 00:57:55;;;;;;;13.03;10.00;;;25.90;51.50;;;;;;5025738;28;20435;-81
2023/07/31 01:00:23;;;;;;;12.27;10.00;;;25.90;51.80;;;;;;5042456;28;20507;-81
2023/07/31 01:02:52;;;;;;;12.03;9.97;;;25.90;51.60;;;;;;5044926;28;20490;-81
2023/07/31 01:05:20;;;;;;;13.17;9.30;;;25.90;51.60;;;;;;5042943;28;20453;-81
2023/07/31 01:07:52;;;;;;;12.57;8.57;;;25.90;51.50;;;;;;5040464;28;20523;-81
2023/07/31 01:10:22;;;;;;;11.73;8.40;;;25.90;51.50;;;;;;5021057;28;20436;-81
2023/07/31 01:12:52;;;;;;;10.10;7.70;;;25.90;51.80;;;;;;5035008;28;20418;-81
2023/07/31 01:15:20;;;;;;;8.23;7.43;;;25.90;51.70;;;;;;5039858;28;20460;-81
2023/07/31 01:17:49;;;;;;;9.27;7.93;;;25.90;51.50;;;;;;5039640;28;20455;-81
2023/07/31 01:20:19;;;;;;;8.40;7.37;;;25.90;51.60;;;;;;5030386;28;20472;-80
2023/07/31 01:23:09;;;;;;;7.93;7.13;;;25.90;51.50;;;;;;5032784;28;20519;-81
2023/07/31 01:25:55;;;;;;;7.87;6.50;;;25.80;51.50;;;;;;5039235;28;20527;-81
2023/07/31 01:28:26;;;;;;;9.33;6.63;;;25.80;51.60;;;;;;5031339;28;20527;-80
2023/07/31 01:30:54;;;;;;;6.17;5.57;;;25.80;51.50;;;;;;5039653;28;20440;-81
2023/07/31 01:33:22;;;;;;;5.47;4.97;;;25.80;51.50;;;;;;5039886;28;20510;-81
2023/07/31 01:35:50;;;;;;;6.47;5.77;;;25.80;51.60;;;;;;5023144;28;20480;-81
2023/07/31 01:38:21;;;;;;;5.57;5.07;;;25.70;51.50;;;;;;5039729;28;21021;-81
2023/07/31 01:40:52;;;;;;;6.30;4.67;;;25.70;51.70;;;;;;5028501;28;20874;-81
2023/07/31 01:43:21;;;;;;;6.63;4.90;;;25.70;51.90;;;;;;5027523;28;20447;-81
2023/07/31 01:45:49;;;;;;;5.00;4.47;;;25.70;51.90;;;;;;5039330;28;20530;-81
2023/07/31 01:48:17;;;;;;;5.30;4.47;;;25.70;52.20;;;;;;5039983;28;20927;-82
2023/07/31 01:50:45;;;;;;;4.43;4.03;;;25.70;52.10;;;;;;5039892;28;20435;-82
2023/07/31 01:53:13;;;;;;;4.60;4.20;;;25.60;52.30;;;;;;5039748;28;20440;-83
2023/07/31 01:55:41;;;;;;;4.03;3.67;;;25.60;52.60;;;;;;5043045;28;20464;-84
2023/07/31 01:58:08;;;;;;;5.10;4.10;;;25.60;52.50;;;;;;5040240;28;20490;-83
2023/07/31 02:00:37;;;;;;;3.97;3.60;;;25.50;52.80;;;;;;5023101;28;20490;-82
2023/07/31 02:03:05;;;;;;;4.33;3.50;;;25.50;52.70;;;;;;5039772;28;20495;-82
2023/07/31 02:05:33;;;;;;;4.17;3.77;;;25.50;53.00;;;;;;5039491;28;20468;-82
2023/07/31 02:08:01;;;;;;;4.53;3.50;;;25.40;53.10;;;;;;5032181;28;20454;-83
2023/07/31 02:10:33;;;;;;;3.60;3.00;;;25.40;53.20;;;;;;5036748;28;20520;-84
2023/07/31 02:13:03;;;;;;;3.30;3.00;;;25.40;53.20;;;;;;5039840;28;20514;-83
2023/07/31 02:15:31;;;;;;;3.20;3.00;;;25.40;53.30;;;;;;5039315;28;20498;-83
2023/07/31 02:18:01;;;;;;;2.50;2.40;;;25.40;53.30;;;;;;5040257;28;20478;-82
2023/07/31 02:20:29;;;;;;;3.00;2.80;;;25.40;53.20;;;;;;5039655;28;20535;-83
2023/07/31 02:22:58;;;;;;;3.40;3.20;;;25.40;53.50;;;;;;5039708;28;20451;-82
2023/07/31 02:25:26;;;;;;;3.00;2.80;;;25.40;53.60;;;;;;5039721;28;20469;-82
2023/07/31 02:27:54;;;;;;;2.90;2.70;;;25.40;53.60;;;;;;5038602;28;20453;-83
2023/07/31 02:30:22;;;;;;;2.60;2.50;;;25.30;53.50;;;;;;5039968;28;20422;-81
2023/07/31 02:32:50;;;;;;;2.93;2.60;;;25.30;53.60;;;;;;5039543;28;20436;-82
2023/07/31 02:35:20;;;;;;;4.77;2.63;;;25.30;53.80;;;;;;5038756;28;20467;-82
2023/07/31 02:37:48;;;;;;;2.50;2.30;;;25.30;53.60;;;;;;5022600;28;21002;-83
2023/07/31 02:40:16;;;;;;;2.60;2.20;;;25.20;53.70;;;;;;5039082;28;20511;-82
2023/07/31 02:42:45;;;;;;;2.80;2.47;;;25.30;53.70;;;;;;5039292;28;20506;-82
2023/07/31 02:45:13;;;;;;;2.47;2.20;;;25.30;53.80;;;;;;5039352;28;20829;-83
2023/07/31 02:47:41;;;;;;;2.37;2.27;;;25.20;54.00;;;;;;5030574;28;20448;-83
2023/07/31 02:50:10;;;;;;;2.37;2.23;;;25.20;54.10;;;;;;4997376;22;20489;-74
2023/07/31 02:52:39;;;;;;;2.00;1.90;;;25.20;54.10;;;;;;4969159;28;20517;-74
2023/07/31 02:55:07;;;;;;;2.10;1.80;;;25.20;54.10;;;;;;4972830;28;20533;-77
2023/07/31 02:57:36;;;;;;;2.07;1.97;;;25.20;54.10;;;;;;4972741;28;20442;-75
2023/07/31 03:00:06;;;;;;;2.60;2.17;;;25.10;54.20;;;;;;4963007;28;20508;-75
2023/07/31 03:02:34;;;;;;;2.03;1.93;;;25.10;54.20;;;;;;4949156;28;20479;-74
2023/07/31 03:05:02;;;;;;;2.40;2.20;;;25.10;54.30;;;;;;4945620;28;20459;-75
2023/07/31 03:07:30;;;;;;;2.33;2.13;;;25.10;54.20;;;;;;4952942;28;20775;-76
2023/07/31 03:09:59;;;;;;;1.63;1.53;;;25.10;54.30;;;;;;4953400;28;20526;-76
2023/07/31 03:12:28;;;;;;;2.10;2.00;;;25.10;54.40;;;;;;4953521;28;20526;-74
2023/07/31 03:14:55;;;;;;;3.40;1.90;;;25.00;54.60;;;;;;4955838;28;20477;-76
2023/07/31 03:17:24;;;;;;;2.40;2.30;;;25.00;54.60;;;;;;4955449;28;20455;-76
2023/07/31 03:19:52;;;;;;;2.00;1.90;;;25.00;54.60;;;;;;4957879;28;20468;-78
2023/07/31 03:22:20;;;;;;;1.70;1.60;;;25.10;54.60;;;;;;4953278;28;20923;-78
2023/07/31 03:24:48;;;;;;;2.07;1.87;;;25.00;54.50;;;;;;4953093;28;20442;-78
2023/07/31 03:27:17;;;;;;;1.90;1.80;;;25.00;54.60;;;;;;4953163;28;20509;-78
2023/07/31 03:29:44;;;;;;;2.13;1.77;;;25.00;54.50;;;;;;4952850;28;20883;-77
2023/07/31 03:32:13;;;;;;;1.80;1.70;;;25.00;54.80;;;;;;4953183;28;20414;-77
2023/07/31 03:34:40;;;;;;;2.13;1.60;;;25.00;54.90;;;;;;4948530;28;20446;-78
2023/07/31 03:37:09;;;;;;;1.80;1.70;;;25.00;54.80;;;;;;4952839;28;20510;-76
2023/07/31 03:39:37;;;;;;;1.73;1.63;;;25.00;54.90;;;;;;4960889;28;20872;-77
2023/07/31 03:42:06;;;;;;;1.80;1.70;;;25.00;54.90;;;;;;4945173;28;20471;-76
2023/07/31 03:44:35;;;;;;;1.57;1.47;;;24.90;54.80;;;;;;4952820;28;20451;-77
2023/07/31 03:47:03;;;;;;;1.93;1.70;;;25.00;54.90;;;;;;4952962;28;20484;-76
2023/07/31 03:49:31;;;;;;;1.83;1.73;;;25.00;54.90;;;;;;4952625;28;20475;-76
2023/07/31 03:51:59;;;;;;;2.27;2.07;;;24.90;54.90;;;;;;4945622;28;20577;-78
2023/07/31 03:54:27;;;;;;;1.80;1.70;;;24.90;54.80;;;;;;4952699;28;20449;-76
2023/07/31 03:56:55;;;;;;;1.80;1.70;;;24.90;55.00;;;;;;4952364;28;20418;-77
2023/07/31 03:59:24;;;;;;;1.60;1.50;;;24.90;54.80;;;;;;4952380;28;20490;-76
2023/07/31 04:01:53;;;;;;;2.10;1.93;;;24.90;54.80;;;;;;4956693;28;20502;-77
2023/07/31 04:04:21;;;;;;;1.73;1.63;;;24.90;54.90;;;;;;4956517;28;20451;-78
2023/07/31 04:06:49;;;;;;;2.27;2.17;;;24.80;54.80;;;;;;4956556;28;20486;-77
2023/07/31 04:09:17;;;;;;;1.60;1.50;;;24.80;55.00;;;;;;4952279;28;20478;-78
2023/07/31 04:11:45;;;;;;;1.90;1.80;;;24.80;55.00;;;;;;4956416;28;20447;-77
2023/07/31 04:14:14;;;;;;;1.57;1.47;;;24.80;55.00;;;;;;4956335;28;20451;-77
2023/07/31 04:16:42;;;;;;;1.70;1.60;;;24.80;55.10;;;;;;4956262;28;20429;-77
2023/07/31 04:19:16;;;;;;;1.60;1.50;;;24.80;55.10;;;;;;4948895;28;20501;-76
2023/07/31 04:21:44;;;;;;;1.40;1.40;;;24.90;55.10;;;;;;4956372;28;20449;-77
2023/07/31 04:24:12;;;;;;;1.43;1.33;;;24.80;55.20;;;;;;4956367;28;20655;-76
2023/07/31 04:26:40;;;;;;;1.47;1.37;;;24.80;55.20;;;;;;4962544;28;20477;-77
2023/07/31 04:29:09;;;;;;;1.53;1.43;;;24.80;55.30;;;;;;4948447;28;20471;-79
2023/07/31 04:31:37;;;;;;;1.63;1.53;;;24.80;55.40;;;;;;4956830;28;20443;-76
2023/07/31 04:34:06;;;;;;;1.50;1.40;;;24.80;55.20;;;;;;4956128;28;20451;-78
2023/07/31 04:36:36;;;;;;;1.50;1.40;;;24.80;55.30;;;;;;4970827;28;20557;-77
2023/07/31 04:39:05;;;;;;;1.57;1.30;;;24.80;55.40;;;;;;4957321;28;20502;-79
2023/07/31 04:41:32;;;;;;;1.23;1.23;;;24.80;55.20;;;;;;4952734;28;20471;-79
2023/07/31 04:44:00;;;;;;;1.13;1.13;;;24.80;55.40;;;;;;4956506;28;20453;-77
2023/07/31 04:46:28;;;;;;;1.70;1.20;;;24.80;55.30;;;;;;4964074;28;20958;-78
2023/07/31 04:49:23;;;;;;;1.40;1.30;;;24.80;55.30;;;;;;4954807;28;20463;-79
2023/07/31 04:51:56;;;;;;;1.30;1.20;;;24.80;55.20;;;;;;4951424;28;20559;-79
2023/07/31 04:54:25;;;;;;;1.20;1.10;;;24.80;55.20;;;;;;4953280;28;20480;-77
2023/07/31 04:56:57;;;;;;;1.20;1.20;;;24.80;55.80;;;;;;4952237;28;20444;-77
2023/07/31 04:59:28;;;;;;;1.30;1.20;;;24.80;55.10;;;;;;4955172;28;20478;-76
2023/07/31 05:01:56;;;;;;;0.90;0.90;;;24.80;55.20;;;;;;4955191;28;20508;-78
2023/07/31 05:04:29;;;;;;;2.50;1.30;;;24.80;55.20;;;;;;4951930;28;20459;-78
2023/07/31 05:07:02;;;;;;;1.30;1.30;;;24.80;55.40;;;;;;4956718;28;20450;-78
2023/07/31 05:09:33;;;;;;;1.00;1.00;;;24.80;55.20;;;;;;4955519;28;20504;-78
2023/07/31 05:12:05;;;;;;;1.10;1.10;;;24.80;55.30;;;;;;4949875;28;20554;-78
2023/07/31 05:14:34;;;;;;;1.07;1.07;;;24.80;55.40;;;;;;4962752;28;20455;-77
2023/07/31 05:17:05;;;;;;;1.10;1.10;;;24.80;55.40;;;;;;4959232;28;20458;-78
2023/07/31 05:19:33;;;;;;;1.10;1.10;;;24.80;55.30;;;;;;4949039;28;20498;-78
2023/07/31 05:22:02;;;;;;;1.13;1.03;;;24.80;55.40;;;;;;4954683;28;20475;-78
2023/07/31 05:24:30;;;;;;;1.07;1.07;;;24.80;55.50;;;;;;4955075;28;20440;-78
2023/07/31 05:27:03;;;;;;;2.63;0.97;;;24.80;55.50;;;;;;4961660;28;20451;-79
2023/07/31 05:29:32;;;;;;;1.10;1.10;;;24.80;55.40;;;;;;4955063;28;20466;-78
2023/07/31 05:32:00;;;;;;;1.00;1.00;;;24.80;55.50;;;;;;4962882;28;20447;-78
2023/07/31 05:34:28;;;;;;;0.90;0.90;;;24.80;55.50;;;;;;4954951;28;20449;-77
2023/07/31 05:36:56;;;;;;;0.80;0.80;;;24.80;55.60;;;;;;4946550;28;20469;-77
2023/07/31 05:39:26;;;;;;;1.93;0.93;;;24.80;55.60;;;;;;4957047;28;20875;-78
2023/07/31 05:41:54;;;;;;;0.90;0.90;;;24.80;55.60;;;;;;4961119;28;20467;-78
2023/07/31 05:44:23;;;;;;;0.80;0.80;;;24.80;55.60;;;;;;4954694;28;20434;-78
2023/07/31 05:46:51;;;;;;;0.80;0.80;;;24.80;55.70;;;;;;4954548;28;20504;-80
2023/07/31 05:49:20;;;;;;;1.00;1.00;;;24.80;55.60;;;;;;4946943;28;20529;-77
2023/07/31 05:51:48;;;;;;;0.70;0.70;;;24.80;55.70;;;;;;4949784;28;20521;-77
2023/07/31 05:54:16;;;;;;;0.93;0.93;;;24.80;55.90;;;;;;4955263;28;20517;-78
2023/07/31 05:56:46;;;;;;;1.03;0.90;;;24.80;55.80;;;;;;4954508;28;21028;-77
2023/07/31 05:59:14;;;;;;;1.03;0.93;;;24.80;55.90;;;;;;4954616;28;20473;-77
2023/07/31 06:01:42;;;;;;;0.70;0.70;;;24.80;55.90;;;;;;4953173;28;20524;-78
2023/07/31 06:04:10;;;;;;;1.47;0.80;;;24.80;55.80;;;;;;4946844;28;20570;-77
2023/07/31 06:06:39;;;;;;;0.87;0.87;;;24.80;55.80;;;;;;4953983;28;20482;-79
2023/07/31 06:09:08;;;;;;;0.80;0.80;;;24.80;55.90;;;;;;4953840;28;20467;-78
2023/07/31 06:11:36;;;;;;;1.60;0.83;;;24.90;55.80;;;;;;4956399;28;20509;-78
2023/07/31 06:14:06;;;;;;;1.63;0.77;;;24.90;55.80;;;;;;4951849;28;20474;-77
2023/07/31 06:16:34;;;;;;;0.77;0.77;;;24.90;55.90;;;;;;4953263;28;20479;-77
2023/07/31 06:19:03;;;;;;;0.80;0.80;;;24.90;55.80;;;;;;4953086;28;20445;-77
2023/07/31 06:21:31;;;;;;;0.80;0.80;;;24.90;55.90;;;;;;4953678;28;20470;-77
2023/07/31 06:23:59;;;;;;;1.00;0.80;;;24.80;56.00;;;;;;4959991;28;20448;-77
2023/07/31 06:26:27;;;;;;;0.73;0.70;;;24.80;56.10;;;;;;4953584;28;20491;-78
2023/07/31 06:28:55;;;;;;;0.93;0.80;;;24.80;56.20;;;;;;4948519;28;20506;-77
2023/07/31 06:31:24;;;;;;;0.80;0.80;;;24.80;56.20;;;;;;4949318;28;20432;-77
2023/07/31 06:33:53;;;;;;;0.70;0.70;;;24.80;56.20;;;;;;4953445;28;20424;-78
2023/07/31 06:36:21;;;;;;;1.00;0.90;;;24.80;56.00;;;;;;4953687;28;20470;-77
2023/07/31 06:38:49;;;;;;;0.80;0.80;;;24.90;56.00;;;;;;4953319;28;20501;-77
2023/07/31 06:41:17;;;;;;;0.80;0.80;;;24.90;56.20;;;;;;4952986;28;20430;-77
2023/07/31 06:43:45;;;;;;;1.27;0.70;;;24.90;56.10;;;;;;4952736;28;20479;-77
2023/07/31 06:46:13;;;;;;;0.80;0.80;;;24.90;56.10;;;;;;4950601;28;20461;-77
2023/07/31 06:48:42;;;;;;;0.90;0.80;;;24.90;56.10;;;;;;4959071;28;20831;-76
2023/07/31 06:51:10;;;;;;;0.60;0.60;;;24.90;56.70;;;;;;4954984;28;20470;-77
2023/07/31 06:53:38;;;;;;;0.97;0.70;;;24.90;56.10;;;;;;4942368;28;20486;-77
2023/07/31 06:56:06;;;;;;;0.60;0.60;;;25.00;56.10;;;;;;4953224;28;20546;-78
2023/07/31 06:58:34;;;;;;;0.90;0.90;;;25.00;56.00;;;;;;4946471;28;20548;-77
2023/07/31 07:01:03;;;;;;;0.80;0.80;;;25.00;56.10;;;;;;4955547;28;20455;-77
2023/07/31 07:03:30;;;;;;;0.80;0.80;;;25.00;56.00;;;;;;4946079;29;20482;-77
2023/07/31 07:06:00;;;;;;;0.80;0.80;;;25.00;56.00;;;;;;4949662;28;20478;-79
2023/07/31 07:08:28;;;;;;;0.70;0.70;;;24.90;55.90;;;;;;4952481;28;20467;-76
2023/07/31 07:10:55;;;;;;;0.80;0.80;;;25.00;56.20;;;;;;4952914;28;20562;-76
2023/07/31 07:13:23;;;;;;;0.60;0.60;;;24.90;56.00;;;;;;4953070;28;20475;-76
2023/07/31 07:15:51;;;;;;;0.70;0.70;;;24.90;56.00;;;;;;4954669;28;20530;-77
2023/07/31 07:18:20;;;;;;;0.90;0.80;;;24.90;56.00;;;;;;4953617;28;20434;-76
2023/07/31 07:20:49;;;;;;;0.90;0.70;;;24.90;56.20;;;;;;4951950;28;20459;-76
2023/07/31 07:23:19;;;;;;;1.07;0.80;;;24.90;56.00;;;;;;4952834;28;20445;-75
2023/07/31 07:25:47;;;;;;;0.83;0.80;;;24.90;55.90;;;;;;4961195;28;20418;-77
2023/07/31 07:28:15;;;;;;;0.70;0.70;;;24.90;56.10;;;;;;4952853;28;20477;-80
2023/07/31 07:30:43;;;;;;;0.90;0.70;;;24.90;56.20;;;;;;4949552;28;20418;-78
2023/07/31 07:33:12;;;;;;;0.70;0.70;;;24.90;56.20;;;;;;4951886;28;20439;-77
2023/07/31 07:35:40;;;;;;;1.80;0.70;;;25.00;56.00;;;;;;4955690;28;20488;-76
2023/07/31 07:38:08;;;;;;;1.00;0.70;;;25.00;56.00;;;;;;4964267;28;20443;-78
2023/07/31 07:40:41;;;;;;;1.00;0.70;;;25.00;55.80;;;;;;4952437;28;20542;-78
2023/07/31 07:43:09;;;;;;;0.93;0.83;;;25.00;55.90;;;;;;4963944;28;20483;-78
2023/07/31 07:45:37;;;;;;;0.80;0.80;;;25.10;56.00;;;;;;4956929;28;21009;-78
2023/07/31 07:48:06;;;;;;;1.00;0.90;;;25.10;56.10;;;;;;4965003;28;20453;-79
2023/07/31 07:50:34;;;;;;;1.13;1.00;;;25.10;56.00;;;;;;4956613;28;20546;-79
2023/07/31 07:53:02;;;;;;;1.00;0.87;;;25.20;56.00;;;;;;4956485;28;20474;-77
2023/07/31 07:55:30;;;;;;;1.97;1.40;;;25.20;56.00;;;;;;4949214;28;20466;-77
2023/07/31 07:57:59;;;;;;;1.60;1.50;;;25.20;55.80;;;;;;4962113;28;20517;-78
2023/07/31 08:00:27;;;;;;;5.60;1.40;;;25.20;56.10;;;;;;4956202;28;20455;-77
2023/07/31 08:02:57;;;;;;;1.93;1.83;;;25.20;56.40;;;;;;4955116;28;20474;-79
2023/07/31 08:05:25;;;;;;;1.60;1.50;;;25.30;56.00;;;;;;4956733;28;20504;-77
2023/07/31 08:07:54;;;;;;;2.90;1.70;;;25.40;55.90;;;;;;4961630;28;20450;-78
2023/07/31 08:10:21;;;;;;;2.00;1.90;;;25.40;56.10;;;;;;4954099;28;20488;-77
2023/07/31 08:12:50;;;;;;;2.90;2.00;;;25.40;55.90;;;;;;4953678;28;20530;-75
2023/07/31 08:15:19;;;;;;;2.17;1.87;;;25.40;56.00;;;;;;4953270;28;20461;-79
2023/07/31 08:17:46;;;;;;;2.70;2.50;;;25.40;56.30;;;;;;4955816;28;20567;-78
2023/07/31 08:20:14;;;;;;;2.90;2.60;;;25.40;56.30;;;;;;4956185;28;20470;-79
2023/07/31 08:22:42;;;;;;;3.43;2.30;;;25.50;56.40;;;;;;4955562;28;20498;-77
2023/07/31 08:25:10;;;;;;;5.20;2.37;;;25.50;56.50;;;;;;4947509;28;20537;-77
2023/07/31 08:27:38;;;;;;;2.90;2.60;;;25.50;56.60;;;;;;4958371;28;20505;-77
2023/07/31 08:30:07;;;;;;;6.83;2.87;;;25.50;56.40;;;;;;4954388;28;20533;-77
2023/07/31 08:32:36;;;;;;;3.77;2.90;;;25.60;56.60;;;;;;4949969;28;20429;-78
2023/07/31 08:35:05;;;;;;;4.70;2.33;;;25.60;56.50;;;;;;4954377;28;20424;-78
2023/07/31 08:37:33;;;;;;;3.63;2.60;;;25.60;56.50;;;;;;4955693;28;20539;-77
2023/07/31 08:40:01;;;;;;;3.73;3.00;;;25.60;56.60;;;;;;4951701;28;20438;-78
2023/07/31 08:42:29;;;;;;;6.00;3.33;;;25.60;56.70;;;;;;4960736;28;20477;-78
2023/07/31 08:44:58;;;;;;;5.70;3.20;;;25.60;56.80;;;;;;4955357;28;20460;-79
2023/07/31 08:47:27;;;;;;;7.00;3.30;;;25.60;56.70;;;;;;4954110;28;20439;-78
2023/07/31 08:49:56;;;;;;;3.60;3.30;;;25.70;56.70;;;;;;4990248;22;20493;-80
2023/07/31 08:52:24;;;;;;;9.20;3.27;;;25.70;56.60;;;;;;4984969;28;20537;-80
2023/07/31 08:54:51;;;;;;;5.27;3.43;;;25.70;56.90;;;;;;4981072;28;20409;-80
2023/07/31 08:57:19;;;;;;;8.10;3.50;;;25.70;56.90;;;;;;4978529;28;20493;-80
2023/07/31 08:59:47;;;;;;;6.93;3.93;;;25.70;56.70;;;;;;4977654;28;20540;-80
2023/07/31 09:02:17;;;;;;;3.37;3.10;;;25.70;57.00;;;;;;4984762;28;20505;-82
2023/07/31 09:04:45;;;;;;;6.10;3.80;;;25.70;56.90;;;;;;4972414;28;20478;-82
2023/07/31 09:07:15;;;;;;;7.83;4.27;;;25.70;57.00;;;;;;4978997;28;20508;-82
2023/07/31 09:09:43;;;;;;;4.17;3.23;;;25.70;57.10;;;;;;4996393;28;20966;-82
2023/07/31 09:12:11;;;;;;;5.20;3.70;;;25.70;57.10;;;;;;4989210;28;20464;-83
2023/07/31 09:14:39;;;;;;;4.50;3.40;;;25.70;57.00;;;;;;4981746;28;20442;-83
2023/07/31 09:17:07;;;;;;;4.20;3.43;;;25.70;57.10;;;;;;4980854;28;20481;-82
2023/07/31 09:19:37;;;;;;;5.03;3.40;;;25.80;57.10;;;;;;4986836;28;20466;-82
2023/07/31 09:22:05;;;;;;;3.90;3.50;;;25.80;57.20;;;;;;4978142;28;20449;-83
2023/07/31 09:24:35;;;;;;;3.73;3.33;;;25.90;57.30;;;;;;4982413;28;20493;-83
2023/07/31 09:27:09;;;;;;;5.27;3.37;;;25.90;57.00;;;;;;4987745;28;20458;-82
2023/07/31 09:29:39;;;;;;;5.70;3.47;;;25.90;56.90;;;;;;4982835;28;20462;-83
2023/07/31 09:32:08;;;;;;;6.00;3.33;;;26.00;56.90;;;;;;4984922;28;20446;-83
2023/07/31 09:34:48;;;;;;;2.83;2.57;;;26.00;56.80;;;;;;4983228;28;20451;-83
2023/07/31 09:37:17;;;;;;;6.70;3.57;;;26.00;56.70;;;;;;4990608;28;20453;-83
2023/07/31 09:39:54;;;;;;;4.90;3.33;;;26.00;56.90;;;;;;4985622;28;20477;-83
2023/07/31 09:42:31;;;;;;;3.60;3.30;;;26.00;56.90;;;;;;4980682;28;20432;-82
2023/07/31 09:45:15;;;;;;;7.47;3.73;;;26.10;56.90;;;;;;4975238;28;20474;-82
2023/07/31 09:47:57;;;;;;;4.73;3.40;;;26.10;57.00;;;;;;4989682;28;20447;-82
2023/07/31 09:50:26;;;;;;;3.97;3.57;;;26.10;56.90;;;;;;4981281;28;20484;-83
2023/07/31 09:53:02;;;;;;;4.93;3.23;;;26.10;56.90;;;;;;4979848;28;20481;-82
2023/07/31 09:55:32;;;;;;;4.23;3.50;;;26.20;57.60;;;;;;4981627;28;20427;-80
2023/07/31 09:58:00;;;;;;;4.70;3.43;;;26.10;57.00;;;;;;4978442;28;20885;-82
2023/07/31 10:00:31;;;;;;;4.60;3.70;;;26.10;57.10;;;;;;4974407;28;20556;-82
2023/07/31 10:02:59;;;;;;;4.30;3.70;;;26.10;57.30;;;;;;4976309;28;20440;-82
2023/07/31 10:05:32;;;;;;;6.63;3.57;;;26.10;57.90;;;;;;4969899;28;20498;-81
2023/07/31 10:08:01;;;;;;;3.60;3.30;;;26.10;57.50;;;;;;4972795;28;20435;-79
2023/07/31 10:10:42;;;;;;;3.97;3.50;;;26.10;57.60;;;;;;4975117;28;20462;-81
2023/07/31 10:13:10;;;;;;;4.13;3.43;;;26.20;57.60;;;;;;4966289;28;20421;-81
2023/07/31 10:15:37;;;;;;;3.83;3.30;;;26.20;57.60;;;;;;4973605;28;20478;-80
2023/07/31 10:18:06;;;;;;;5.33;3.00;;;26.20;57.60;;;;;;4971960;28;20443;-79
2023/07/31 10:20:34;;;;;;;4.60;3.20;;;26.20;57.60;;;;;;4967648;28;20459;-81
2023/07/31 10:23:02;;;;;;;3.13;2.77;;;26.20;57.60;;;;;;4979114;28;20450;-81
2023/07/31 10:25:30;;;;;;;3.57;3.23;;;26.20;57.70;;;;;;4974735;28;20470;-81
2023/07/31 10:27:59;;;;;;;3.13;2.70;;;26.30;57.80;;;;;;4978303;28;20431;-80
2023/07/31 10:30:29;;;;;;;3.23;2.80;;;26.40;57.70;;;;;;4971011;28;21005;-80
2023/07/31 10:32:57;;;;;;;5.07;3.10;;;26.40;57.80;;;;;;4981059;28;20480;-81
2023/07/31 10:35:25;;;;;;;6.00;2.73;;;26.40;57.80;;;;;;4965411;28;20542;-80
2023/07/31 10:37:54;;;;;;;3.37;2.83;;;26.50;57.90;;;;;;4970537;28;20501;-78
2023/07/31 10:40:25;;;;;;;3.37;3.10;;;26.50;58.10;;;;;;4980210;28;20469;-81
2023/07/31 10:42:53;;;;;;;2.93;2.60;;;26.50;58.00;;;;;;4964141;28;20519;-79
2023/07/31 10:45:27;;;;;;;3.30;2.80;;;26.60;58.00;;;;;;4978939;28;20504;-80
2023/07/31 10:47:59;;;;;;;6.30;3.00;;;26.60;57.70;;;;;;4983375;28;20475;-80
2023/07/31 10:50:27;;;;;;;3.87;2.53;;;26.50;57.70;;;;;;4976668;28;20489;-80
2023/07/31 10:52:56;;;;;;;2.43;2.30;;;26.50;58.10;;;;;;4970904;28;20533;-79
2023/07/31 10:55:26;;;;;;;2.17;2.07;;;26.50;58.20;;;;;;4974042;28;20434;-79
2023/07/31 10:57:54;;;;;;;2.80;2.53;;;26.50;58.20;;;;;;4975563;28;20774;-79
2023/07/31 11:00:23;;;;;;;2.57;2.47;;;26.50;58.30;;;;;;4980972;28;20476;-81
2023/07/31 11:03:03;;;;;;;1.90;1.80;;;26.40;58.40;;;;;;4975518;28;20442;-79
2023/07/31 11:05:51;;;;;;;2.10;2.00;;;26.40;58.40;;;;;;4981309;28;20479;-80
2023/07/31 11:08:20;;;;;;;2.13;1.93;;;26.50;58.50;;;;;;4973678;28;20506;-80
2023/07/31 11:10:49;;;;;;;2.20;2.10;;;26.50;58.60;;;;;;4975083;28;20470;-79
2023/07/31 11:13:17;;;;;;;2.50;2.07;;;26.50;58.60;;;;;;4973877;28;20537;-80
2023/07/31 11:15:45;;;;;;;2.40;1.93;;;26.50;58.50;;;;;;4975255;28;20448;-80
2023/07/31 11:18:15;;;;;;;2.83;1.80;;;26.50;58.70;;;;;;4968250;28;20468;-81
2023/07/31 11:20:43;;;;;;;1.70;1.60;;;26.50;58.70;;;;;;4975803;28;20557;-81
2023/07/31 11:23:11;;;;;;;1.67;1.57;;;26.50;58.60;;;;;;4976503;28;20478;-80
2023/07/31 11:25:41;;;;;;;1.70;1.60;;;26.60;58.80;;;;;;4980951;28;20504;-79
2023/07/31 11:28:10;;;;;;;1.53;1.53;;;26.60;58.70;;;;;;4968881;28;20438;-80
2023/07/31 11:30:40;;;;;;;1.67;1.57;;;26.60;58.90;;;;;;4976809;28;20466;-81
2023/07/31 11:33:09;;;;;;;1.70;1.60;;;26.60;58.90;;;;;;4977382;28;20482;-80
2023/07/31 11:35:45;;;;;;;1.77;1.67;;;26.50;58.90;;;;;;4975180;28;20450;-81
2023/07/31 11:38:13;;;;;;;2.03;1.93;;;26.60;59.00;;;;;;4965969;28;20438;-80
2023/07/31 11:40:44;;;;;;;1.50;1.40;;;26.60;59.10;;;;;;4974932;28;20457;-81
2023/07/31 11:43:16;;;;;;;1.70;1.60;;;26.50;59.00;;;;;;4975317;28;20442;-79
2023/07/31 11:45:47;;;;;;;2.00;1.90;;;26.60;59.20;;;;;;4969258;28;20482;-81
2023/07/31 11:48:22;;;;;;;2.30;2.17;;;26.60;59.10;;;;;;4976238;28;20446;-81
2023/07/31 11:50:52;;;;;;;2.27;2.10;;;26.60;59.00;;;;;;4975957;28;20509;-81
2023/07/31 11:53:24;;;;;;;2.40;2.30;;;26.60;59.00;;;;;;4975695;28;20416;-78
2023/07/31 11:55:52;;;;;;;2.77;2.67;;;26.60;58.90;;;;;;4965346;28;20519;-80
2023/07/31 11:58:19;;;;;;;2.43;2.33;;;26.60;58.90;;;;;;4971696;28;20512;-81
2023/07/31 12:00:47;;;;;;;3.03;2.87;;;26.70;59.00;;;;;;4976509;28;20489;-81
2023/07/31 12:03:15;;;;;;;2.77;2.57;;;26.70;58.80;;;;;;4961023;28;20450;-80
2023/07/31 12:05:43;;;;;;;2.70;2.60;;;26.60;58.70;;;;;;4976763;28;20474;-78
2023/07/31 12:08:12;;;;;;;2.30;2.20;;;26.70;59.00;;;;;;4972009;28;20995;-82
2023/07/31 12:10:40;;;;;;;2.40;2.30;;;26.70;59.00;;;;;;4976930;28;20460;-80
2023/07/31 12:13:10;;;;;;;2.40;2.30;;;26.70;59.00;;;;;;4974619;28;20478;-81
2023/07/31 12:15:42;;;;;;;2.73;2.53;;;26.70;58.90;;;;;;4975912;28;20528;-81
2023/07/31 12:18:10;;;;;;;2.53;2.37;;;26.70;59.10;;;;;;4978840;28;20442;-80
2023/07/31 12:20:42;;;;;;;2.50;2.37;;;26.70;59.10;;;;;;4980715;28;20454;-80
2023/07/31 12:23:15;;;;;;;2.07;1.97;;;26.80;59.10;;;;;;4975921;28;20443;-80
2023/07/31 12:25:43;;;;;;;2.20;2.10;;;26.80;59.20;;;;;;4977184;28;20505;-81
2023/07/31 12:28:12;;;;;;;2.00;1.90;;;26.90;59.20;;;;;;4977325;28;20509;-81
2023/07/31 12:30:41;;;;;;;2.40;2.30;;;26.80;59.10;;;;;;4974656;28;20497;-80
2023/07/31 12:33:14;;;;;;;2.80;2.60;;;26.80;59.10;;;;;;4970325;28;20490;-81
2023/07/31 12:35:43;;;;;;;2.10;2.00;;;26.80;59.40;;;;;;4978518;28;20446;-80
2023/07/31 12:38:10;;;;;;;2.00;1.90;;;26.90;59.10;;;;;;4975165;28;20446;-80
2023/07/31 12:40:40;;;;;;;1.93;1.90;;;26.90;59.20;;;;;;4977858;28;20460;-81
2023/07/31 12:43:08;;;;;;;1.93;1.83;;;27.00;59.30;;;;;;4970431;28;20505;-81
2023/07/31 12:45:36;;;;;;;1.97;1.87;;;27.00;59.10;;;;;;4965586;28;20514;-80
2023/07/31 12:48:04;;;;;;;1.87;1.77;;;27.00;59.30;;;;;;4970974;28;20460;-81
2023/07/31 12:50:32;;;;;;;2.13;2.03;;;27.00;59.50;;;;;;4975444;28;20478;-81
2023/07/31 12:53:00;;;;;;;2.40;2.03;;;27.00;59.50;;;;;;4974474;28;20450;-81
2023/07/31 12:55:28;;;;;;;2.20;2.10;;;27.10;59.40;;;;;;4983365;28;20570;-81